Time;durP1;ratioP1;P1;durP2;ratioP2;P2;SDS_P1;SDS_P2;PMS_P1;PMS_P2;Temp;Humidity;BMP_temperature;BMP_pressure;BME280_temperature;BME280_humidity;BME280_pressure;Samples;Min_cycle;Max_cycle;Signal;HPM_P1;HPM_P2
2021/11/20 02:38:01;;;;;;;40.88;17.17;;;9.60;99.90;;;;;;6219759;22;20024;-87
2021/11/20 02:41:09;;;;;;;;;;;;;;;;;;;;;
2021/11/20 02:44:04;;;;;;;46.47;17.60;;;9.70;99.90;;;;;;6151543;23;20049;-87
2021/11/20 02:46:36;;;;;;;47.05;17.17;;;9.10;99.90;;;;;;6103253;23;20024;-86
2021/11/20 02:49:07;;;;;;;44.30;17.88;;;9.50;99.90;;;;;;6102681;23;20117;-87
2021/11/20 02:51:39;;;;;;;39.53;17.33;;;9.90;99.90;;;;;;6103740;23;20017;-86
2021/11/20 02:54:11;;;;;;;48.05;17.85;;;9.80;99.90;;;;;;6102636;23;20044;-86
2021/11/20 02:56:47;;;;;;;43.25;17.58;;;9.50;99.90;;;;;;6152287;23;20029;-87
2021/11/20 02:59:16;;;;;;;41.53;17.42;;;9.50;99.90;;;;;;6101187;23;20018;-86
2021/11/20 03:01:52;;;;;;;39.00;17.50;;;9.50;99.90;;;;;;6103020;23;20151;-86
2021/11/20 03:04:29;;;;;;;41.13;17.17;;;9.60;99.90;;;;;;6126965;23;20021;-86
2021/11/20 03:06:58;;;;;;;33.20;16.67;;;9.60;99.90;;;;;;6126846;23;20056;-85
2021/11/20 03:09:27;;;;;;;37.40;17.85;;;10.00;99.90;;;;;;6124962;23;20092;-85
2021/11/20 03:11:54;;;;;;;49.35;18.17;;;10.30;99.90;;;;;;6127253;23;20021;-87
2021/11/20 03:14:19;;;;;;;40.60;18.05;;;10.40;99.90;;;;;;6177631;23;20026;-86
2021/11/20 03:16:53;;;;;;;39.75;17.00;;;10.00;99.90;;;;;;6192760;23;20242;-85
2021/11/20 03:19:20;;;;;;;43.53;18.02;;;9.80;99.90;;;;;;6192802;23;20118;-86
2021/11/20 03:21:54;;;;;;;40.05;16.98;;;9.80;99.90;;;;;;6192895;23;20016;-86
2021/11/20 03:24:22;;;;;;;40.20;16.83;;;9.80;99.90;;;;;;6193261;23;20074;-87
2021/11/20 03:26:57;;;;;;;41.35;17.40;;;10.50;99.90;;;;;;6193673;23;20020;-87
2021/11/20 03:29:25;;;;;;;39.60;17.88;;;9.90;99.90;;;;;;6192348;23;20016;-87
2021/11/20 03:31:53;;;;;;;39.92;16.25;;;9.90;99.90;;;;;;6192750;23;20018;-87
2021/11/20 03:34:24;;;;;;;42.45;17.00;;;9.90;99.90;;;;;;6192246;23;20095;-86
2021/11/20 03:36:54;;;;;;;39.85;17.42;;;9.90;99.90;;;;;;6192664;23;20146;-86
2021/11/20 03:39:20;;;;;;;41.85;18.25;;;9.90;99.90;;;;;;6210681;23;20020;-87
2021/11/20 03:41:51;;;;;;;31.90;15.93;;;10.00;99.90;;;;;;6217392;23;20016;-86
2021/11/20 03:44:31;;;;;;;33.13;16.33;;;10.30;99.90;;;;;;6216952;23;20015;-86
2021/11/20 03:47:15;;;;;;;42.50;16.52;;;9.70;99.90;;;;;;6185274;23;20021;-87
2021/11/20 03:49:56;;;;;;;28.55;15.77;;;10.00;99.90;;;;;;6161274;23;20015;-86
2021/11/20 03:52:28;;;;;;;37.53;16.75;;;10.10;99.90;;;;;;6160610;23;20024;-86
2021/11/20 03:55:16;;;;;;;38.25;16.58;;;10.10;99.90;;;;;;6159968;23;20480;-86
2021/11/20 04:03:47;;;;;;;38.25;16.85;;;10.10;99.90;;;;;;6068003;23;20450;-88
2021/11/20 04:06:30;;;;;;;37.65;17.67;;;10.10;99.90;;;;;;6044138;23;20022;-87
2021/11/20 04:09:12;;;;;;;40.55;17.23;;;10.10;99.90;;;;;;6044201;23;20026;-87
2021/11/20 04:11:48;;;;;;;39.00;17.33;;;10.00;99.90;;;;;;6060504;23;20014;-86
2021/11/20 04:14:22;;;;;;;37.28;16.60;;;10.10;99.90;;;;;;6071883;23;20025;-86
2021/11/20 04:17:07;;;;;;;;;;;;;;;;;;;;;
2021/11/20 04:19:45;;;;;;;42.22;17.48;;;10.10;99.90;;;;;;6096064;23;20018;-87
2021/11/20 04:22:26;;;;;;;37.65;17.25;;;10.10;99.90;;;;;;6072900;23;20355;-87
2021/11/20 04:25:34;;;;;;;37.80;17.83;;;10.10;99.90;;;;;;6073086;23;20032;-88
2021/11/20 04:28:35;;;;;;;35.45;17.70;;;10.30;99.90;;;;;;6072927;23;20485;-87
2021/11/20 04:31:10;;;;;;;34.38;16.90;;;10.10;99.90;;;;;;6068941;23;20447;-88
2021/11/20 04:33:49;;;;;;;41.47;17.73;;;10.20;99.90;;;;;;6073203;23;20018;-88
2021/11/20 04:36:16;;;;;;;37.35;17.77;;;10.20;99.90;;;;;;6071848;23;20089;-87
2021/11/20 04:38:47;;;;;;;34.15;17.67;;;10.10;99.90;;;;;;6210451;23;20090;-88
2021/11/20 04:41:16;;;;;;;36.63;17.02;;;10.10;99.90;;;;;;6242167;23;20024;-88
2021/11/20 04:43:44;;;;;;;40.28;19.08;;;10.10;99.90;;;;;;6243465;23;20020;-87
2021/11/20 04:46:12;;;;;;;44.38;19.02;;;10.20;99.90;;;;;;6216051;23;20020;-88
2021/11/20 04:48:41;;;;;;;39.75;17.85;;;10.10;99.90;;;;;;6216807;23;20015;-88
2021/11/20 04:51:08;;;;;;;38.65;18.55;;;10.20;99.90;;;;;;6216149;23;20114;-88
2021/11/20 04:53:36;;;;;;;41.13;17.85;;;10.20;99.90;;;;;;6216594;23;20035;-87
2021/11/20 04:56:05;;;;;;;38.15;17.60;;;10.50;99.90;;;;;;6216226;23;20024;-88
2021/11/20 04:58:43;;;;;;;33.90;17.52;;;10.20;99.90;;;;;;6215794;23;20027;-88
2021/11/20 05:01:18;;;;;;;34.95;17.55;;;10.30;99.90;;;;;;6240872;23;20024;-88
2021/11/20 05:03:45;;;;;;;34.85;17.23;;;10.20;99.90;;;;;;6217219;23;20052;-87
2021/11/20 05:06:12;;;;;;;38.75;17.77;;;10.20;99.90;;;;;;6241811;23;20070;-88
2021/11/20 05:08:38;;;;;;;35.85;16.80;;;10.20;99.90;;;;;;6216857;23;20020;-88
2021/11/20 05:11:06;;;;;;;34.78;16.83;;;10.20;99.90;;;;;;6215557;23;20379;-88
2021/11/20 05:13:38;;;;;;;37.65;16.90;;;10.90;99.90;;;;;;6217302;23;20016;-88
2021/11/20 05:16:06;;;;;;;35.25;17.67;;;10.30;99.90;;;;;;6215247;23;20115;-87
2021/11/20 05:18:32;;;;;;;37.40;16.88;;;10.20;99.90;;;;;;6217062;23;20020;-87
2021/11/20 05:21:00;;;;;;;38.35;17.00;;;10.20;99.90;;;;;;6216327;23;20050;-87
2021/11/20 05:23:31;;;;;;;33.88;16.70;;;10.30;99.90;;;;;;6216967;23;20012;-88
2021/11/20 05:25:58;;;;;;;33.22;16.48;;;10.20;99.90;;;;;;6216164;23;20012;-87
2021/11/20 05:28:24;;;;;;;40.50;17.45;;;10.30;99.90;;;;;;6216084;23;20459;-88
2021/11/20 05:30:52;;;;;;;36.17;17.40;;;10.10;99.90;;;;;;6216652;23;20012;-86
2021/11/20 05:33:36;;;;;;;34.40;16.42;;;10.90;99.90;;;;;;6217069;23;20016;-87
2021/11/20 05:36:05;;;;;;;30.58;16.40;;;10.10;99.90;;;;;;6215820;23;20016;-88
2021/11/20 05:38:34;;;;;;;31.52;16.33;;;10.00;99.90;;;;;;6216923;23;20024;-86
2021/11/20 05:41:07;;;;;;;32.08;16.65;;;10.50;99.90;;;;;;6217497;23;20023;-88
2021/11/20 05:43:33;;;;;;;34.53;16.88;;;10.00;99.90;;;;;;6218375;23;20024;-89
2021/11/20 05:46:08;;;;;;;34.75;16.45;;;10.10;99.90;;;;;;6243260;23;20020;-87
2021/11/20 05:48:33;;;;;;;31.25;17.00;;;9.90;99.90;;;;;;6218680;23;20904;-88
2021/11/20 05:50:59;;;;;;;38.15;16.67;;;10.00;99.90;;;;;;6243156;23;20102;-88
2021/11/20 05:53:26;;;;;;;41.13;17.27;;;10.80;99.90;;;;;;6243530;23;20031;-88
2021/11/20 05:55:53;;;;;;;36.97;17.30;;;9.90;99.90;;;;;;6218522;23;20008;-88
2021/11/20 05:58:20;;;;;;;31.75;17.55;;;9.90;99.90;;;;;;6218354;23;20098;-87
2021/11/20 06:00:49;;;;;;;35.17;17.88;;;10.10;99.90;;;;;;6217458;23;20095;-88
2021/11/20 06:03:17;;;;;;;33.08;17.17;;;10.50;99.90;;;;;;6218488;23;20379;-90
2021/11/20 06:05:43;;;;;;;33.10;17.25;;;10.40;99.90;;;;;;6217289;23;20020;-88
2021/11/20 06:08:53;;;;;;;35.50;16.67;;;10.10;99.90;;;;;;6216966;23;20015;-86
2021/11/20 06:11:30;;;;;;;37.33;18.45;;;10.00;99.90;;;;;;6216743;23;20012;-87
2021/11/20 06:17:58;;;;;;;35.20;17.40;;;9.70;99.90;;;;;;6244166;23;20419;-86
2021/11/20 06:20:40;;;;;;;38.63;16.80;;;10.10;99.90;;;;;;6219921;23;20047;-86
2021/11/20 06:27:27;;;;;;;27.85;16.98;;;9.80;99.90;;;;;;6091319;23;20023;-86
2021/11/20 06:31:02;;;;;;;31.73;16.48;;;10.00;99.90;;;;;;6068057;23;20458;-86
2021/11/20 06:33:37;;;;;;;33.78;17.77;;;9.90;99.90;;;;;;6006780;23;20095;-86
2021/11/20 06:36:09;;;;;;;33.05;16.65;;;10.70;99.90;;;;;;5960645;23;20102;-86
2021/11/20 06:38:39;;;;;;;33.30;17.02;;;10.20;99.90;;;;;;5983579;23;20031;-86
2021/11/20 06:41:06;;;;;;;32.63;17.55;;;10.20;99.90;;;;;;5983155;23;20119;-84
2021/11/20 06:43:33;;;;;;;33.83;17.23;;;10.30;99.90;;;;;;6006994;23;20032;-85
2021/11/20 06:46:03;;;;;;;30.67;17.08;;;10.20;99.90;;;;;;6006334;23;20023;-83
2021/11/20 06:48:30;;;;;;;36.92;17.58;;;10.20;99.90;;;;;;5960482;23;20016;-85
2021/11/20 06:51:14;;;;;;;34.80;18.20;;;10.30;99.90;;;;;;5982910;23;20471;-87
2021/11/20 06:57:13;;;;;;;33.28;17.83;;;10.30;99.90;;;;;;5936847;24;20031;-85
2021/11/20 07:02:20;;;;;;;33.30;18.05;;;10.30;99.90;;;;;;5927994;24;20081;-88
2021/11/20 07:04:46;;;;;;;32.17;18.60;;;10.30;99.90;;;;;;6016038;23;20022;-86
2021/11/20 07:07:13;;;;;;;32.95;18.92;;;10.30;99.90;;;;;;6040174;23;20019;-80
2021/11/20 07:09:40;;;;;;;29.33;18.83;;;10.70;99.90;;;;;;6015362;23;20015;-82
2021/11/20 07:12:07;;;;;;;35.20;19.38;;;10.20;99.90;;;;;;6039828;23;20149;-83
2021/11/20 07:14:41;;;;;;;35.78;19.08;;;10.20;99.90;;;;;;6062953;23;20018;-85
2021/11/20 07:17:11;;;;;;;32.63;18.75;;;10.20;99.90;;;;;;5992824;23;20019;-87
2021/11/20 07:19:37;;;;;;;31.40;18.98;;;10.30;99.90;;;;;;6039040;23;20029;-84
2021/11/20 07:22:03;;;;;;;29.25;17.67;;;10.30;99.90;;;;;;6037841;23;20014;-82
2021/11/20 07:24:28;;;;;;;31.85;17.63;;;10.50;99.90;;;;;;6063912;23;20025;-86
2021/11/20 07:26:54;;;;;;;25.42;16.95;;;10.50;99.90;;;;;;6067288;23;20015;-85
2021/11/20 07:33:00;;;;;;;23.90;15.48;;;9.90;99.90;;;;;;6090029;23;20045;-84
2021/11/20 07:35:55;;;;;;;27.42;16.77;;;10.80;99.90;;;;;;6244079;23;20432;-84
2021/11/20 07:42:05;;;;;;;26.90;16.13;;;10.20;99.90;;;;;;6243216;23;20060;-86
2021/11/20 07:44:31;;;;;;;26.85;16.13;;;10.80;99.90;;;;;;6215809;23;20078;-87
2021/11/20 07:47:03;;;;;;;25.10;15.60;;;10.60;99.90;;;;;;6244851;23;20016;-86
2021/11/20 07:49:29;;;;;;;22.48;15.45;;;10.20;99.90;;;;;;6232489;23;20016;-84
2021/11/20 07:52:23;;;;;;;25.48;16.23;;;10.20;99.90;;;;;;6223280;23;20020;-85
2021/11/20 07:54:49;;;;;;;23.05;15.57;;;10.20;99.90;;;;;;6244841;23;20107;-85
2021/11/20 07:57:39;;;;;;;22.38;15.98;;;10.20;99.90;;;;;;6185395;23;20098;-86
2021/11/20 08:00:14;;;;;;;25.48;16.00;;;9.80;99.90;;;;;;6160961;23;20012;-87
2021/11/20 08:03:10;;;;;;;21.75;15.80;;;10.20;99.90;;;;;;6186258;23;20440;-90
2021/11/20 08:05:53;;;;;;;24.98;16.35;;;10.30;99.90;;;;;;6138310;23;20010;-92
2021/11/20 08:08:24;;;;;;;23.35;15.82;;;10.30;99.90;;;;;;6131748;23;20017;-89
2021/11/20 08:10:56;;;;;;;27.10;16.67;;;10.00;99.90;;;;;;6131916;23;20017;-86
2021/11/20 08:13:35;;;;;;;23.73;16.38;;;10.30;99.90;;;;;;6132180;23;20047;-90
2021/11/20 08:16:19;;;;;;;27.15;16.85;;;10.00;99.90;;;;;;6130778;23;20048;-88
2021/11/20 08:19:01;;;;;;;24.17;17.80;;;10.70;99.90;;;;;;6097232;23;20101;-88
2021/11/20 08:21:39;;;;;;;28.20;18.30;;;10.30;99.90;;;;;;6073066;23;20435;-91
2021/11/20 08:24:17;;;;;;;26.67;17.05;;;10.20;99.90;;;;;;6098410;23;20132;-90
2021/11/20 08:26:49;;;;;;;24.70;17.38;;;10.30;99.90;;;;;;6071774;23;20018;-90
2021/11/20 08:29:30;;;;;;;27.63;18.42;;;10.30;99.90;;;;;;6072316;23;20156;-87
2021/11/20 08:32:51;;;;;;;26.27;18.25;;;10.30;99.90;;;;;;6076384;23;20014;-86
2021/11/20 08:35:41;;;;;;;29.17;18.83;;;10.30;99.90;;;;;;6034799;23;20113;-88
2021/11/20 08:38:24;;;;;;;31.48;19.55;;;11.00;99.90;;;;;;5989458;23;20037;-89
2021/11/20 08:45:02;;;;;;;;;;;;;;;;;;;;;
2021/11/20 08:47:59;;;;;;;26.25;18.58;;;10.40;99.90;;;;;;5923517;23;20047;-89
2021/11/20 08:50:51;;;;;;;28.80;19.42;;;10.40;99.90;;;;;;5899409;24;20374;-86
2021/11/20 08:53:21;;;;;;;30.42;19.67;;;10.40;99.90;;;;;;5899091;24;20025;-88
2021/11/20 08:55:51;;;;;;;27.17;19.90;;;11.10;99.90;;;;;;5899608;24;20051;-86
2021/11/20 08:58:17;;;;;;;30.58;20.48;;;10.80;99.90;;;;;;5899161;24;20115;-85
2021/11/20 09:00:51;;;;;;;27.65;20.45;;;10.50;99.90;;;;;;5904291;24;20032;-81
2021/11/20 09:03:35;;;;;;;27.92;19.42;;;10.40;99.90;;;;;;5950992;24;20067;-80
2021/11/20 09:06:23;;;;;;;28.15;18.98;;;10.80;99.90;;;;;;5927047;24;20120;-82
2021/11/20 09:08:55;;;;;;;32.22;20.40;;;10.50;99.90;;;;;;5927532;24;20462;-82
2021/11/20 09:11:45;;;;;;;40.50;22.25;;;10.40;99.90;;;;;;5969037;23;20015;-83
2021/11/20 09:14:50;;;;;;;29.88;20.52;;;10.70;99.90;;;;;;6035409;23;20051;-84
2021/11/20 09:17:19;;;;;;;29.60;20.90;;;10.40;99.90;;;;;;5993041;23;20447;-83
2021/11/20 09:19:48;;;;;;;32.28;21.25;;;10.40;99.90;;;;;;6073433;23;20025;-82
2021/11/20 09:22:16;;;;;;;30.52;21.02;;;10.50;99.90;;;;;;6092947;23;20046;-85
2021/11/20 09:24:45;;;;;;;29.60;20.75;;;10.50;99.90;;;;;;6070638;23;20022;-87
2021/11/20 09:27:12;;;;;;;35.30;21.88;;;10.50;99.90;;;;;;6093907;23;20066;-83
2021/11/20 09:29:56;;;;;;;28.40;20.15;;;11.10;99.90;;;;;;6070372;23;20021;-85
2021/11/20 09:32:22;;;;;;;31.58;21.40;;;10.60;99.90;;;;;;6093373;23;20015;-84
2021/11/20 09:34:48;;;;;;;30.80;21.27;;;10.50;99.90;;;;;;6069522;23;20025;-83
2021/11/20 09:37:40;;;;;;;30.95;20.65;;;10.70;99.90;;;;;;6093618;23;20033;-82
2021/11/20 09:45:12;;;;;;;31.63;21.35;;;10.70;99.90;;;;;;5892900;24;20425;-79
2021/11/20 09:49:11;;;;;;;29.52;21.42;;;10.50;99.90;;;;;;5874335;24;20448;-80
2021/11/20 09:56:07;;;;;;;31.30;21.35;;;10.50;99.90;;;;;;5738236;25;20097;-79
2021/11/20 09:58:40;;;;;;;31.10;21.05;;;10.50;99.90;;;;;;5738473;25;20408;-80
2021/11/20 10:01:36;;;;;;;29.30;21.08;;;10.50;99.90;;;;;;5737122;25;20012;-83
2021/11/20 10:04:02;;;;;;;29.13;21.83;;;10.50;99.90;;;;;;5715590;25;20099;-82
2021/11/20 10:06:34;;;;;;;29.52;21.02;;;10.30;99.90;;;;;;5715873;25;20475;-84
2021/11/20 10:09:27;;;;;;;32.70;20.23;;;10.60;99.90;;;;;;5737750;25;20434;-83
2021/11/20 10:12:00;;;;;;;29.58;21.50;;;10.60;99.90;;;;;;5698892;25;20017;-82
2021/11/20 10:14:46;;;;;;;34.97;22.77;;;10.60;99.90;;;;;;5716125;25;20383;-83
2021/11/20 10:17:25;;;;;;;33.33;22.73;;;10.40;99.90;;;;;;5751748;24;20060;-82
2021/11/20 10:20:15;;;;;;;29.70;21.73;;;10.60;99.90;;;;;;5818791;24;20010;-83
2021/11/20 10:23:30;;;;;;;28.98;21.38;;;10.60;99.90;;;;;;5846594;24;20584;-84
2021/11/20 10:30:08;;;;;;;29.20;22.05;;;10.40;99.90;;;;;;5920105;23;20194;-84
2021/11/20 10:33:01;;;;;;;27.27;21.27;;;10.20;99.90;;;;;;6074720;23;20117;-86
2021/11/20 10:39:57;;;;;;;27.50;22.35;;;10.30;99.90;;;;;;5979032;24;20095;-82
2021/11/20 10:42:39;;;;;;;29.23;22.75;;;10.50;99.90;;;;;;5955913;24;20088;-83
2021/11/20 10:45:15;;;;;;;33.60;23.70;;;9.70;99.90;;;;;;5979834;24;20126;-86
2021/11/20 10:48:00;;;;;;;27.92;22.55;;;10.80;99.90;;;;;;5977858;24;20012;-82
2021/11/20 10:50:34;;;;;;;31.02;23.58;;;10.60;99.90;;;;;;5932243;24;20463;-83
2021/11/20 10:53:21;;;;;;;27.85;21.73;;;10.30;99.90;;;;;;5955726;24;20476;-82
2021/11/20 10:56:29;;;;;;;32.05;23.58;;;10.60;99.90;;;;;;5955499;24;20004;-81
2021/11/20 10:59:00;;;;;;;30.13;23.70;;;10.70;99.90;;;;;;5978781;24;20016;-82
2021/11/20 11:01:26;;;;;;;29.70;22.85;;;10.60;99.90;;;;;;5954679;24;20388;-82
2021/11/20 11:04:31;;;;;;;31.35;23.65;;;10.70;99.90;;;;;;5955469;24;20327;-82
2021/11/20 11:07:36;;;;;;;32.30;22.13;;;10.70;99.90;;;;;;5952734;24;20044;-83
2021/11/20 11:10:40;;;;;;;34.53;23.70;;;10.60;99.90;;;;;;5950665;24;20025;-80
2021/11/20 11:14:12;;;;;;;;;;;;;;;;;;;;;
2021/11/20 11:25:21;;;;;;;38.33;27.52;;;10.30;99.90;;;;;;5868917;24;20033;-80
2021/11/20 11:31:54;;;;;;;39.33;27.20;;;10.40;99.90;;;;;;5840741;24;20482;-82
2021/11/20 11:34:27;;;;;;;36.10;26.33;;;10.50;99.90;;;;;;5819213;24;20018;-79
2021/11/20 11:37:24;;;;;;;40.25;29.10;;;10.50;99.90;;;;;;5818568;24;20015;-79
2021/11/20 11:40:43;;;;;;;45.22;29.98;;;10.40;99.90;;;;;;5818248;24;20128;-79
2021/11/20 11:43:40;;;;;;;40.08;28.88;;;10.40;99.90;;;;;;5740525;24;20012;-81
2021/11/20 11:46:30;;;;;;;40.95;28.70;;;10.40;99.90;;;;;;5739040;24;20008;-78
2021/11/20 11:49:33;;;;;;;44.17;29.83;;;10.40;99.90;;;;;;5740382;24;20016;-78
2021/11/20 11:52:27;;;;;;;44.75;29.80;;;10.40;99.90;;;;;;5728983;24;20102;-77
2021/11/20 11:55:13;;;;;;;41.95;29.77;;;10.40;99.90;;;;;;5838888;24;20125;-78
2021/11/20 11:58:16;;;;;;;46.30;30.98;;;10.40;99.90;;;;;;5822587;24;20493;-77
2021/11/20 12:01:05;;;;;;;44.30;30.67;;;10.40;99.90;;;;;;5845159;24;20128;-81
2021/11/20 12:03:40;;;;;;;44.92;31.48;;;10.40;99.90;;;;;;5951884;24;20027;-79
2021/11/20 12:06:28;;;;;;;47.90;30.10;;;10.40;99.90;;;;;;5953215;24;20129;-78
2021/11/20 12:08:54;;;;;;;47.42;31.23;;;10.40;99.90;;;;;;6005832;23;20033;-80
2021/11/20 12:11:28;;;;;;;47.35;31.55;;;10.30;99.90;;;;;;6013856;23;20046;-80
2021/11/20 12:14:16;;;;;;;48.47;32.30;;;10.40;99.90;;;;;;6038620;23;20023;-79
2021/11/20 12:16:53;;;;;;;49.45;30.92;;;10.40;99.90;;;;;;6037018;23;20438;-79
2021/11/20 12:19:28;;;;;;;44.45;31.50;;;10.40;99.90;;;;;;6188707;23;20023;-79
2021/11/20 12:22:20;;;;;;;49.10;32.60;;;10.30;99.90;;;;;;6216983;23;20315;-81
2021/11/20 12:25:19;;;;;;;47.20;31.77;;;10.40;99.90;;;;;;6215745;23;20012;-79
2021/11/20 12:27:47;;;;;;;53.80;31.83;;;10.40;99.90;;;;;;6191126;23;20008;-79
2021/11/20 12:30:49;;;;;;;51.03;30.33;;;10.40;99.90;;;;;;6191148;23;20344;-83
2021/11/20 12:33:27;;;;;;;46.80;30.55;;;10.40;99.90;;;;;;6215144;23;20043;-79
2021/11/20 12:36:19;;;;;;;42.78;30.83;;;10.40;99.90;;;;;;6190551;23;20012;-79
2021/11/20 12:38:51;;;;;;;49.88;30.70;;;10.40;99.90;;;;;;6191248;23;20016;-80
2021/11/20 12:41:38;;;;;;;50.53;31.90;;;10.40;99.90;;;;;;6216849;23;20455;-79
2021/11/20 12:44:36;;;;;;;46.33;28.52;;;10.40;99.90;;;;;;6190016;23;20048;-80
2021/11/20 12:47:26;;;;;;;46.63;31.15;;;10.40;99.90;;;;;;6213437;23;20320;-80
2021/11/20 12:50:36;;;;;;;45.58;30.10;;;10.40;99.90;;;;;;6188444;23;20123;-79
2021/11/20 12:53:03;;;;;;;45.67;30.15;;;10.40;99.90;;;;;;6139089;23;20017;-80
2021/11/20 12:55:47;;;;;;;46.67;30.02;;;10.40;99.90;;;;;;6124760;23;20045;-80
2021/11/20 12:58:17;;;;;;;46.35;30.70;;;10.40;99.90;;;;;;6148751;23;20052;-80
2021/11/20 13:00:51;;;;;;;50.25;31.75;;;10.40;99.90;;;;;;6123872;23;20111;-79
2021/11/20 13:03:46;;;;;;;49.00;31.73;;;10.40;99.90;;;;;;6124170;23;20017;-80
2021/11/20 13:06:27;;;;;;;46.38;30.20;;;10.40;99.90;;;;;;6148164;23;20060;-79
2021/11/20 13:09:07;;;;;;;50.92;30.63;;;10.40;99.90;;;;;;6125664;23;20017;-80
2021/11/20 13:11:49;;;;;;;49.60;30.67;;;10.30;99.90;;;;;;6124485;23;20455;-80
2021/11/20 13:14:36;;;;;;;44.15;30.38;;;10.30;99.90;;;;;;6101237;23;20099;-79
2021/11/20 13:17:25;;;;;;;43.55;28.95;;;10.40;99.90;;;;;;6124871;23;20022;-80
2021/11/20 13:19:57;;;;;;;47.00;30.58;;;10.40;99.90;;;;;;6150296;23;20018;-78
2021/11/20 13:22:28;;;;;;;47.67;29.92;;;10.30;99.90;;;;;;6125698;23;20029;-79
2021/11/20 13:25:00;;;;;;;40.67;26.45;;;10.40;99.90;;;;;;6124617;23;20013;-81
2021/11/20 13:27:41;;;;;;;50.10;30.13;;;10.40;99.90;;;;;;6124047;23;20057;-79
2021/11/20 13:30:16;;;;;;;49.35;30.95;;;10.40;99.90;;;;;;6191767;23;20413;-81
2021/11/20 13:32:49;;;;;;;46.92;28.55;;;10.40;99.90;;;;;;6239744;23;20019;-78
2021/11/20 13:35:20;;;;;;;45.05;28.83;;;10.40;99.90;;;;;;6240078;23;20073;-79
2021/11/20 13:38:00;;;;;;;49.28;28.80;;;10.40;99.90;;;;;;6240430;23;20498;-80
2021/11/20 13:40:33;;;;;;;45.60;28.88;;;10.40;99.90;;;;;;6214166;23;20066;-78
2021/11/20 13:42:59;;;;;;;44.25;28.17;;;10.40;99.90;;;;;;6240498;23;20414;-78
2021/11/20 13:45:26;;;;;;;42.72;26.67;;;10.40;99.90;;;;;;6215290;23;20090;-77
2021/11/20 13:47:52;;;;;;;44.20;27.45;;;10.40;99.90;;;;;;6214865;23;20816;-77
2021/11/20 13:50:18;;;;;;;42.42;26.25;;;10.40;99.90;;;;;;6241415;23;20091;-76
2021/11/20 13:52:45;;;;;;;38.80;25.70;;;10.30;99.90;;;;;;6215872;23;20098;-78
2021/11/20 13:55:14;;;;;;;39.50;25.00;;;10.30;99.90;;;;;;6213895;23;20012;-78
2021/11/20 13:57:41;;;;;;;41.78;25.35;;;10.30;99.90;;;;;;6239937;23;20071;-77
2021/11/20 14:00:14;;;;;;;37.80;23.60;;;10.40;99.90;;;;;;6214475;23;20016;-77
2021/11/20 14:02:46;;;;;;;38.65;23.67;;;10.30;99.90;;;;;;6237494;23;20095;-76
2021/11/20 14:05:12;;;;;;;34.75;22.92;;;10.30;99.90;;;;;;6240554;23;20020;-75
2021/11/20 14:07:38;;;;;;;35.60;23.05;;;10.30;99.90;;;;;;6241102;23;20296;-76
2021/11/20 14:10:09;;;;;;;35.97;21.92;;;10.20;99.90;;;;;;6240563;23;20023;-76
2021/11/20 14:12:52;;;;;;;35.10;22.08;;;10.20;99.90;;;;;;6240411;23;20115;-77
2021/11/20 14:15:18;;;;;;;35.53;21.50;;;10.20;99.90;;;;;;6241448;23;20019;-78
2021/11/20 14:17:44;;;;;;;33.47;21.17;;;10.20;99.90;;;;;;6241670;23;20016;-77
2021/11/20 14:20:12;;;;;;;35.90;21.67;;;10.20;99.90;;;;;;6241041;23;20112;-77
2021/11/20 14:22:40;;;;;;;32.35;20.60;;;10.20;99.90;;;;;;6241641;23;20035;-77
2021/11/20 14:25:25;;;;;;;30.92;19.02;;;10.20;99.90;;;;;;6216546;23;20420;-77
2021/11/20 14:28:01;;;;;;;;;;;10.20;99.90;;;;;;6216860;23;20012;-79
2021/11/20 14:30:35;;;;;;;28.83;17.20;;;10.20;99.90;;;;;;6244015;22;20248;-78
2021/11/20 14:33:30;;;;;;;27.17;17.80;;;10.20;99.90;;;;;;6242665;23;20364;-80
2021/11/20 14:36:03;;;;;;;29.77;17.58;;;10.20;99.90;;;;;;6242131;23;20027;-79
2021/11/20 14:38:30;;;;;;;29.67;17.33;;;10.20;99.90;;;;;;6193002;23;20099;-80
2021/11/20 14:40:58;;;;;;;26.50;16.98;;;10.20;99.90;;;;;;6242489;23;20073;-80
2021/11/20 14:43:31;;;;;;;30.02;15.88;;;10.20;99.90;;;;;;6217432;23;20023;-80
2021/11/20 14:45:57;;;;;;;24.38;16.05;;;10.20;99.90;;;;;;6216570;23;20020;-81
2021/11/20 14:48:29;;;;;;;28.08;15.20;;;10.20;99.90;;;;;;6217226;23;20020;-80
2021/11/20 14:50:58;;;;;;;20.58;13.90;;;10.40;99.90;;;;;;6218008;23;20016;-80
2021/11/20 14:53:28;;;;;;;25.13;14.90;;;10.30;99.90;;;;;;6217373;23;20020;-80
2021/11/20 14:55:58;;;;;;;24.40;14.65;;;10.20;99.90;;;;;;6217688;23;20027;-80
2021/11/20 14:58:25;;;;;;;21.70;13.70;;;10.20;99.90;;;;;;6217247;23;20320;-81
2021/11/20 15:00:57;;;;;;;26.20;15.13;;;10.30;99.90;;;;;;6242421;23;20055;-80
2021/11/20 15:03:23;;;;;;;22.10;13.63;;;10.20;99.90;;;;;;6243354;23;20115;-80
2021/11/20 15:05:49;;;;;;;24.00;14.20;;;10.20;99.90;;;;;;6242456;23;20016;-81
2021/11/20 15:08:16;;;;;;;24.52;14.80;;;10.20;99.90;;;;;;6242697;23;20016;-80
2021/11/20 15:10:42;;;;;;;23.45;15.15;;;10.30;99.90;;;;;;6216880;23;20105;-79
2021/11/20 15:13:08;;;;;;;23.48;14.48;;;10.20;99.90;;;;;;6243242;23;20389;-79
2021/11/20 15:15:34;;;;;;;26.90;15.07;;;10.20;99.90;;;;;;6242192;23;20016;-79
2021/11/20 15:18:00;;;;;;;24.75;15.20;;;10.20;99.90;;;;;;6242850;23;20023;-79
2021/11/20 15:20:26;;;;;;;27.52;15.75;;;10.30;99.90;;;;;;6240992;23;20016;-80
2021/11/20 15:22:52;;;;;;;27.60;16.65;;;10.30;99.90;;;;;;6219134;23;20424;-80
2021/11/20 15:25:18;;;;;;;28.95;17.02;;;10.30;99.90;;;;;;6241688;23;20090;-80
2021/11/20 15:27:43;;;;;;;31.85;18.00;;;10.20;99.90;;;;;;6239869;23;20436;-78
2021/11/20 15:30:13;;;;;;;31.17;17.33;;;10.20;99.90;;;;;;6240202;23;20044;-81
2021/11/20 15:32:39;;;;;;;30.05;17.90;;;10.10;99.90;;;;;;6240010;23;20019;-82
2021/11/20 15:35:08;;;;;;;32.17;16.40;;;10.10;99.90;;;;;;6185503;23;20425;-80
2021/11/20 15:37:34;;;;;;;28.67;15.98;;;10.10;99.90;;;;;;6184701;23;20529;-79
2021/11/20 15:39:59;;;;;;;30.05;16.63;;;10.20;99.90;;;;;;6186637;23;20119;-79
2021/11/20 15:42:25;;;;;;;31.65;16.50;;;10.10;99.90;;;;;;6161904;23;20016;-79
2021/11/20 15:44:51;;;;;;;24.20;14.50;;;10.10;99.90;;;;;;6211986;23;20449;-78
2021/11/20 15:47:27;;;;;;;34.63;14.25;;;10.20;99.90;;;;;;6185023;23;20017;-83
2021/11/20 15:49:55;;;;;;;24.48;12.93;;;10.00;99.90;;;;;;6160208;23;20998;-84
2021/11/20 15:52:21;;;;;;;26.50;13.07;;;10.20;99.90;;;;;;6184922;23;20906;-82
2021/11/20 15:54:48;;;;;;;24.35;11.60;;;10.10;99.90;;;;;;6185382;23;20021;-84
2021/11/20 15:57:13;;;;;;;24.63;12.10;;;10.00;99.90;;;;;;6185109;23;20505;-84
2021/11/20 15:59:49;;;;;;;26.02;12.13;;;10.00;99.90;;;;;;6185460;23;20195;-85
2021/11/20 16:02:18;;;;;;;28.33;12.57;;;9.90;99.90;;;;;;6158001;23;20517;-83
2021/11/20 16:04:45;;;;;;;27.08;12.43;;;9.90;99.90;;;;;;6160214;23;20074;-81
2021/11/20 16:07:11;;;;;;;22.42;10.88;;;10.00;99.90;;;;;;6191301;23;20091;-78
2021/11/20 16:09:36;;;;;;;26.55;11.70;;;9.90;99.90;;;;;;6191327;23;20040;-78
2021/11/20 16:12:02;;;;;;;24.52;11.38;;;9.90;99.90;;;;;;6216669;23;20019;-76
2021/11/20 16:14:28;;;;;;;20.45;11.23;;;9.90;99.90;;;;;;6215108;23;20014;-79
2021/11/20 16:16:54;;;;;;;20.95;11.23;;;10.00;99.90;;;;;;6214505;23;20012;-81
2021/11/20 16:19:21;;;;;;;21.33;9.68;;;10.00;99.90;;;;;;6190687;23;20027;-81
2021/11/20 16:21:48;;;;;;;23.58;10.27;;;10.00;99.90;;;;;;6165839;23;20027;-80
2021/11/20 16:24:14;;;;;;;16.52;8.50;;;9.90;99.90;;;;;;6190442;23;20016;-81
2021/11/20 16:26:40;;;;;;;24.73;9.48;;;9.90;99.90;;;;;;6189315;23;20090;-80
2021/11/20 16:29:06;;;;;;;22.67;9.75;;;9.80;99.90;;;;;;6215576;23;20012;-81
2021/11/20 16:31:32;;;;;;;20.60;10.00;;;9.80;99.90;;;;;;6189122;23;20051;-82
2021/11/20 16:33:58;;;;;;;21.00;9.77;;;9.70;99.90;;;;;;6216225;23;20008;-78
2021/11/20 16:36:24;;;;;;;19.60;9.27;;;9.80;99.90;;;;;;6214714;23;20016;-83
2021/11/20 16:38:58;;;;;;;18.90;8.65;;;9.70;99.90;;;;;;6166389;23;20035;-82
2021/11/20 16:41:30;;;;;;;16.08;9.18;;;9.70;99.90;;;;;;6214969;23;20023;-81
2021/11/20 16:43:56;;;;;;;19.45;9.48;;;9.70;99.90;;;;;;6215054;23;20022;-83
2021/11/20 16:46:24;;;;;;;24.80;9.57;;;9.60;99.90;;;;;;6190195;23;20031;-83
2021/11/20 16:48:51;;;;;;;17.35;8.55;;;9.60;99.90;;;;;;6190154;23;20429;-82
2021/11/20 16:54:03;;;;;;;19.85;8.82;;;9.60;99.90;;;;;;6216589;23;20024;-83
2021/11/20 16:56:33;;;;;;;20.50;8.15;;;9.50;99.90;;;;;;6214809;23;20008;-85
2021/11/20 16:58:59;;;;;;;16.95;7.82;;;9.60;99.90;;;;;;6215995;23;20054;-85